sensor_id;sensor_type;location;lat;lon;timestamp;temperature;humidity
16076;DHT22;8142;48.242;11.644;2022-07-17T00:00:48;16.60;99.60
16076;DHT22;8142;48.242;11.644;2022-07-17T00:03:15;16.60;99.60
16076;DHT22;8142;48.242;11.644;2022-07-17T00:05:42;16.70;99.60
16076;DHT22;8142;48.242;11.644;2022-07-17T00:08:09;16.70;99.60
16076;DHT22;8142;48.242;11.644;2022-07-17T00:10:37;16.60;99.90
16076;DHT22;8142;48.242;11.644;2022-07-17T00:13:04;16.70;99.50
16076;DHT22;8142;48.242;11.644;2022-07-17T00:15:30;16.70;99.50
16076;DHT22;8142;48.242;11.644;2022-07-17T00:17:56;16.70;99.50
16076;DHT22;8142;48.242;11.644;2022-07-17T00:20:22;16.60;99.50
16076;DHT22;8142;48.242;11.644;2022-07-17T00:22:54;16.60;99.30
16076;DHT22;8142;48.242;11.644;2022-07-17T00:25:24;16.60;99.50
16076;DHT22;8142;48.242;11.644;2022-07-17T00:27:50;16.60;99.60
16076;DHT22;8142;48.242;11.644;2022-07-17T00:30:16;16.60;99.80
16076;DHT22;8142;48.242;11.644;2022-07-17T00:32:42;16.60;99.90
16076;DHT22;8142;48.242;11.644;2022-07-17T00:35:08;16.50;99.90
16076;DHT22;8142;48.242;11.644;2022-07-17T00:37:45;16.50;99.90
16076;DHT22;8142;48.242;11.644;2022-07-17T00:40:14;16.50;99.90
16076;DHT22;8142;48.242;11.644;2022-07-17T00:42:42;16.40;99.90
16076;DHT22;8142;48.242;11.644;2022-07-17T00:45:09;16.40;99.90
16076;DHT22;8142;48.242;11.644;2022-07-17T00:47:50;16.40;99.90
16076;DHT22;8142;48.242;11.644;2022-07-17T00:50:16;16.40;99.90
16076;DHT22;8142;48.242;11.644;2022-07-17T00:52:42;16.40;99.90
16076;DHT22;8142;48.242;11.644;2022-07-17T00:55:08;16.40;99.90
16076;DHT22;8142;48.242;11.644;2022-07-17T00:57:36;16.40;99.90
16076;DHT22;8142;48.242;11.644;2022-07-17T01:00:05;16.40;99.90
16076;DHT22;8142;48.242;11.644;2022-07-17T01:02:35;16.30;99.90
16076;DHT22;8142;48.242;11.644;2022-07-17T01:05:01;16.30;99.90
16076;DHT22;8142;48.242;11.644;2022-07-17T01:07:27;16.20;99.90
16076;DHT22;8142;48.242;11.644;2022-07-17T01:09:53;16.20;99.90
16076;DHT22;8142;48.242;11.644;2022-07-17T01:12:19;16.20;99.90
16076;DHT22;8142;48.242;11.644;2022-07-17T01:14:46;16.10;99.90
16076;DHT22;8142;48.242;11.644;2022-07-17T01:17:12;16.10;99.90
16076;DHT22;8142;48.242;11.644;2022-07-17T01:19:38;16.10;99.90
16076;DHT22;8142;48.242;11.644;2022-07-17T01:22:03;16.00;99.90
16076;DHT22;8142;48.242;11.644;2022-07-17T01:24:29;16.00;99.90
16076;DHT22;8142;48.242;11.644;2022-07-17T01:26:55;15.90;99.90
16076;DHT22;8142;48.242;11.644;2022-07-17T01:29:21;15.90;99.90
16076;DHT22;8142;48.242;11.644;2022-07-17T01:31:47;15.90;99.90
16076;DHT22;8142;48.242;11.644;2022-07-17T01:34:14;15.80;99.90
16076;DHT22;8142;48.242;11.644;2022-07-17T01:36:40;15.80;99.90
16076;DHT22;8142;48.242;11.644;2022-07-17T01:39:06;15.80;99.90
16076;DHT22;8142;48.242;11.644;2022-07-17T01:41:32;15.70;99.90
16076;DHT22;8142;48.242;11.644;2022-07-17T01:43:58;15.70;99.90
16076;DHT22;8142;48.242;11.644;2022-07-17T01:46:25;15.70;99.90
16076;DHT22;8142;48.242;11.644;2022-07-17T01:48:51;15.70;99.90
16076;DHT22;8142;48.242;11.644;2022-07-17T01:51:17;15.70;99.90
16076;DHT22;8142;48.242;11.644;2022-07-17T01:53:42;15.70;99.90
16076;DHT22;8142;48.242;11.644;2022-07-17T01:56:08;15.70;99.90
16076;DHT22;8142;48.242;11.644;2022-07-17T01:58:34;15.70;99.90
16076;DHT22;8142;48.242;11.644;2022-07-17T02:01:00;15.70;99.90
16076;DHT22;8142;48.242;11.644;2022-07-17T02:03:26;15.70;99.90
16076;DHT22;8142;48.242;11.644;2022-07-17T02:05:52;15.60;99.90
16076;DHT22;8142;48.242;11.644;2022-07-17T02:08:18;15.60;99.90
16076;DHT22;8142;48.242;11.644;2022-07-17T02:10:43;15.60;99.90
16076;DHT22;8142;48.242;11.644;2022-07-17T02:13:09;15.60;99.90
16076;DHT22;8142;48.242;11.644;2022-07-17T02:15:35;15.50;99.90
16076;DHT22;8142;48.242;11.644;2022-07-17T02:18:01;15.50;99.90
16076;DHT22;8142;48.242;11.644;2022-07-17T02:20:27;15.50;99.90
16076;DHT22;8142;48.242;11.644;2022-07-17T02:22:53;15.40;99.90
16076;DHT22;8142;48.242;11.644;2022-07-17T02:25:18;15.40;99.90
16076;DHT22;8142;48.242;11.644;2022-07-17T02:27:44;15.30;99.90
16076;DHT22;8142;48.242;11.644;2022-07-17T02:30:15;15.30;99.90
16076;DHT22;8142;48.242;11.644;2022-07-17T02:32:41;15.20;99.90
16076;DHT22;8142;48.242;11.644;2022-07-17T02:35:09;15.20;99.90
16076;DHT22;8142;48.242;11.644;2022-07-17T02:37:36;15.10;99.90
16076;DHT22;8142;48.242;11.644;2022-07-17T02:40:03;15.10;99.90
16076;DHT22;8142;48.242;11.644;2022-07-17T02:42:30;15.10;99.90
16076;DHT22;8142;48.242;11.644;2022-07-17T02:44:58;15.00;99.90
16076;DHT22;8142;48.242;11.644;2022-07-17T02:47:26;15.00;99.90
16076;DHT22;8142;48.242;11.644;2022-07-17T02:49:52;15.00;99.90
16076;DHT22;8142;48.242;11.644;2022-07-17T02:52:19;14.90;99.90
16076;DHT22;8142;48.242;11.644;2022-07-17T02:54:45;14.90;99.90
16076;DHT22;8142;48.242;11.644;2022-07-17T02:57:11;14.80;99.90
16076;DHT22;8142;48.242;11.644;2022-07-17T02:59:38;14.80;99.90
16076;DHT22;8142;48.242;11.644;2022-07-17T03:02:04;14.80;99.90
16076;DHT22;8142;48.242;11.644;2022-07-17T03:04:30;14.70;99.90
16076;DHT22;8142;48.242;11.644;2022-07-17T03:06:56;14.70;99.90
16076;DHT22;8142;48.242;11.644;2022-07-17T03:09:22;14.70;99.90
16076;DHT22;8142;48.242;11.644;2022-07-17T03:11:47;14.70;99.90
16076;DHT22;8142;48.242;11.644;2022-07-17T03:14:13;14.70;99.90
16076;DHT22;8142;48.242;11.644;2022-07-17T03:16:39;14.70;99.90
16076;DHT22;8142;48.242;11.644;2022-07-17T03:19:05;14.70;99.90
16076;DHT22;8142;48.242;11.644;2022-07-17T03:21:31;14.70;99.90
16076;DHT22;8142;48.242;11.644;2022-07-17T03:23:57;14.70;99.90
16076;DHT22;8142;48.242;11.644;2022-07-17T03:26:23;14.70;99.90
16076;DHT22;8142;48.242;11.644;2022-07-17T03:28:48;14.70;99.90
16076;DHT22;8142;48.242;11.644;2022-07-17T03:31:14;14.70;99.90
16076;DHT22;8142;48.242;11.644;2022-07-17T03:33:40;14.60;99.90
16076;DHT22;8142;48.242;11.644;2022-07-17T03:36:06;14.50;99.90
16076;DHT22;8142;48.242;11.644;2022-07-17T03:38:33;14.40;99.90
16076;DHT22;8142;48.242;11.644;2022-07-17T03:40:59;14.40;99.90
16076;DHT22;8142;48.242;11.644;2022-07-17T03:43:25;14.40;99.90
16076;DHT22;8142;48.242;11.644;2022-07-17T03:45:51;14.30;99.90
16076;DHT22;8142;48.242;11.644;2022-07-17T03:48:17;14.30;99.90
16076;DHT22;8142;48.242;11.644;2022-07-17T03:50:43;14.30;99.90
16076;DHT22;8142;48.242;11.644;2022-07-17T03:53:09;14.30;99.90
16076;DHT22;8142;48.242;11.644;2022-07-17T03:55:35;14.30;99.90
16076;DHT22;8142;48.242;11.644;2022-07-17T03:58:01;14.30;99.90
16076;DHT22;8142;48.242;11.644;2022-07-17T04:00:27;14.30;99.90
16076;DHT22;8142;48.242;11.644;2022-07-17T04:02:53;14.30;99.90
16076;DHT22;8142;48.242;11.644;2022-07-17T04:05:19;14.30;99.90
16076;DHT22;8142;48.242;11.644;2022-07-17T04:07:45;14.30;99.90
16076;DHT22;8142;48.242;11.644;2022-07-17T04:10:13;14.10;99.90
16076;DHT22;8142;48.242;11.644;2022-07-17T04:12:40;14.00;99.90
16076;DHT22;8142;48.242;11.644;2022-07-17T04:15:07;13.90;99.90
16076;DHT22;8142;48.242;11.644;2022-07-17T04:17:33;13.80;99.90
16076;DHT22;8142;48.242;11.644;2022-07-17T04:19:59;13.70;99.90
16076;DHT22;8142;48.242;11.644;2022-07-17T04:22:25;13.60;99.90
16076;DHT22;8142;48.242;11.644;2022-07-17T04:24:51;13.50;99.90
16076;DHT22;8142;48.242;11.644;2022-07-17T04:27:18;13.50;99.90
16076;DHT22;8142;48.242;11.644;2022-07-17T04:29:44;13.40;99.90
16076;DHT22;8142;48.242;11.644;2022-07-17T04:32:10;13.40;99.90
16076;DHT22;8142;48.242;11.644;2022-07-17T04:34:36;13.30;99.90
16076;DHT22;8142;48.242;11.644;2022-07-17T04:37:03;13.20;99.90
16076;DHT22;8142;48.242;11.644;2022-07-17T04:39:29;13.20;99.90
16076;DHT22;8142;48.242;11.644;2022-07-17T04:41:55;13.20;99.90
16076;DHT22;8142;48.242;11.644;2022-07-17T04:44:22;13.30;99.90
16076;DHT22;8142;48.242;11.644;2022-07-17T04:46:47;13.40;99.90
16076;DHT22;8142;48.242;11.644;2022-07-17T04:49:13;13.50;99.90
16076;DHT22;8142;48.242;11.644;2022-07-17T04:51:39;13.60;99.90
16076;DHT22;8142;48.242;11.644;2022-07-17T04:54:05;13.80;99.90
16076;DHT22;8142;48.242;11.644;2022-07-17T04:56:31;13.90;99.90
16076;DHT22;8142;48.242;11.644;2022-07-17T04:58:57;14.10;99.90
16076;DHT22;8142;48.242;11.644;2022-07-17T05:01:23;14.20;99.90
16076;DHT22;8142;48.242;11.644;2022-07-17T05:03:49;14.30;99.90
16076;DHT22;8142;48.242;11.644;2022-07-17T05:06:15;14.40;99.90
16076;DHT22;8142;48.242;11.644;2022-07-17T05:08:40;14.50;99.90
16076;DHT22;8142;48.242;11.644;2022-07-17T05:11:06;14.60;99.90
16076;DHT22;8142;48.242;11.644;2022-07-17T05:13:33;14.70;99.90
16076;DHT22;8142;48.242;11.644;2022-07-17T05:15:59;14.90;99.90
16076;DHT22;8142;48.242;11.644;2022-07-17T05:18:25;15.00;99.90
16076;DHT22;8142;48.242;11.644;2022-07-17T05:20:51;15.10;99.90
16076;DHT22;8142;48.242;11.644;2022-07-17T05:23:17;15.20;99.90
16076;DHT22;8142;48.242;11.644;2022-07-17T05:25:43;15.30;99.90
16076;DHT22;8142;48.242;11.644;2022-07-17T05:28:09;15.40;99.90
16076;DHT22;8142;48.242;11.644;2022-07-17T05:30:35;15.50;99.90
16076;DHT22;8142;48.242;11.644;2022-07-17T05:33:01;15.60;99.90
16076;DHT22;8142;48.242;11.644;2022-07-17T05:35:27;15.80;99.90
16076;DHT22;8142;48.242;11.644;2022-07-17T05:37:53;16.00;99.90
16076;DHT22;8142;48.242;11.644;2022-07-17T05:40:18;16.30;99.90
16076;DHT22;8142;48.242;11.644;2022-07-17T05:42:44;16.60;99.90
16076;DHT22;8142;48.242;11.644;2022-07-17T05:45:10;17.00;99.90
16076;DHT22;8142;48.242;11.644;2022-07-17T05:47:36;17.40;99.90
16076;DHT22;8142;48.242;11.644;2022-07-17T05:50:02;17.80;99.90
16076;DHT22;8142;48.242;11.644;2022-07-17T05:52:28;18.20;99.90
16076;DHT22;8142;48.242;11.644;2022-07-17T05:54:54;18.60;99.40
16076;DHT22;8142;48.242;11.644;2022-07-17T05:57:20;19.10;98.30
16076;DHT22;8142;48.242;11.644;2022-07-17T05:59:46;19.40;97.40
16076;DHT22;8142;48.242;11.644;2022-07-17T06:02:11;19.70;96.90
16076;DHT22;8142;48.242;11.644;2022-07-17T06:04:37;20.00;96.40
16076;DHT22;8142;48.242;11.644;2022-07-17T06:07:06;20.30;95.80
16076;DHT22;8142;48.242;11.644;2022-07-17T06:09:32;20.60;95.20
16076;DHT22;8142;48.242;11.644;2022-07-17T06:11:58;20.90;94.70
16076;DHT22;8142;48.242;11.644;2022-07-17T06:14:23;21.10;94.40
16076;DHT22;8142;48.242;11.644;2022-07-17T06:16:50;21.40;93.90
16076;DHT22;8142;48.242;11.644;2022-07-17T06:19:16;21.60;93.00
16076;DHT22;8142;48.242;11.644;2022-07-17T06:21:42;21.70;92.20
16076;DHT22;8142;48.242;11.644;2022-07-17T06:24:08;21.90;91.70
16076;DHT22;8142;48.242;11.644;2022-07-17T06:26:34;21.90;91.60
16076;DHT22;8142;48.242;11.644;2022-07-17T06:29:00;21.90;91.90
16076;DHT22;8142;48.242;11.644;2022-07-17T06:31:26;21.80;91.70
16076;DHT22;8142;48.242;11.644;2022-07-17T06:33:52;21.70;91.30
16076;DHT22;8142;48.242;11.644;2022-07-17T06:36:18;21.60;92.00
16076;DHT22;8142;48.242;11.644;2022-07-17T06:38:43;21.60;92.10
16076;DHT22;8142;48.242;11.644;2022-07-17T06:41:09;21.60;92.60
16076;DHT22;8142;48.242;11.644;2022-07-17T06:43:35;21.70;92.70
16076;DHT22;8142;48.242;11.644;2022-07-17T06:46:01;21.90;92.80
16076;DHT22;8142;48.242;11.644;2022-07-17T06:48:27;22.10;92.50
16076;DHT22;8142;48.242;11.644;2022-07-17T06:50:53;22.30;92.20
16076;DHT22;8142;48.242;11.644;2022-07-17T06:53:19;22.60;92.00
16076;DHT22;8142;48.242;11.644;2022-07-17T06:55:45;22.80;91.80
16076;DHT22;8142;48.242;11.644;2022-07-17T06:58:11;23.00;91.50
16076;DHT22;8142;48.242;11.644;2022-07-17T07:00:38;23.30;91.40
16076;DHT22;8142;48.242;11.644;2022-07-17T07:03:04;23.60;91.10
16076;DHT22;8142;48.242;11.644;2022-07-17T07:05:30;23.80;90.70
16076;DHT22;8142;48.242;11.644;2022-07-17T07:07:55;24.10;90.10
16076;DHT22;8142;48.242;11.644;2022-07-17T07:10:21;24.30;89.90
16076;DHT22;8142;48.242;11.644;2022-07-17T07:12:47;24.50;89.40
16076;DHT22;8142;48.242;11.644;2022-07-17T07:15:13;24.70;88.70
16076;DHT22;8142;48.242;11.644;2022-07-17T07:17:40;25.00;87.70
16076;DHT22;8142;48.242;11.644;2022-07-17T07:20:07;25.20;86.90
16076;DHT22;8142;48.242;11.644;2022-07-17T07:22:34;25.30;86.20
16076;DHT22;8142;48.242;11.644;2022-07-17T07:25:00;25.60;85.40
16076;DHT22;8142;48.242;11.644;2022-07-17T07:27:26;25.70;85.10
16076;DHT22;8142;48.242;11.644;2022-07-17T07:29:51;25.90;84.70
16076;DHT22;8142;48.242;11.644;2022-07-17T07:32:17;26.10;84.20
16076;DHT22;8142;48.242;11.644;2022-07-17T07:34:43;26.30;84.00
16076;DHT22;8142;48.242;11.644;2022-07-17T07:37:09;26.40;83.50
16076;DHT22;8142;48.242;11.644;2022-07-17T07:39:35;26.50;82.90
16076;DHT22;8142;48.242;11.644;2022-07-17T07:42:00;26.60;81.90
16076;DHT22;8142;48.242;11.644;2022-07-17T07:44:26;26.70;81.30
16076;DHT22;8142;48.242;11.644;2022-07-17T07:46:52;26.90;79.90
16076;DHT22;8142;48.242;11.644;2022-07-17T07:49:18;27.00;78.90
16076;DHT22;8142;48.242;11.644;2022-07-17T07:51:44;27.10;79.20
16076;DHT22;8142;48.242;11.644;2022-07-17T07:54:10;27.10;78.30
16076;DHT22;8142;48.242;11.644;2022-07-17T07:56:36;27.20;78.30
16076;DHT22;8142;48.242;11.644;2022-07-17T07:59:02;27.30;78.40
16076;DHT22;8142;48.242;11.644;2022-07-17T08:01:29;27.40;78.60
16076;DHT22;8142;48.242;11.644;2022-07-17T08:03:55;27.40;78.70
16076;DHT22;8142;48.242;11.644;2022-07-17T08:06:21;27.50;78.30
16076;DHT22;8142;48.242;11.644;2022-07-17T08:08:47;27.60;77.50
16076;DHT22;8142;48.242;11.644;2022-07-17T08:11:13;27.60;76.50
16076;DHT22;8142;48.242;11.644;2022-07-17T08:13:40;27.70;77.10
16076;DHT22;8142;48.242;11.644;2022-07-17T08:16:07;27.70;77.90
16076;DHT22;8142;48.242;11.644;2022-07-17T08:18:33;27.70;77.30
16076;DHT22;8142;48.242;11.644;2022-07-17T08:21:00;27.70;77.30
16076;DHT22;8142;48.242;11.644;2022-07-17T08:23:26;27.70;77.30
16076;DHT22;8142;48.242;11.644;2022-07-17T08:25:51;27.70;76.50
16076;DHT22;8142;48.242;11.644;2022-07-17T08:28:17;27.70;75.80
16076;DHT22;8142;48.242;11.644;2022-07-17T08:30:43;27.60;75.60
16076;DHT22;8142;48.242;11.644;2022-07-17T08:33:09;27.50;75.20
16076;DHT22;8142;48.242;11.644;2022-07-17T08:35:36;27.50;74.80
16076;DHT22;8142;48.242;11.644;2022-07-17T08:38:03;27.40;75.20
16076;DHT22;8142;48.242;11.644;2022-07-17T08:40:34;27.30;75.70
16076;DHT22;8142;48.242;11.644;2022-07-17T08:43:02;27.20;75.40
16076;DHT22;8142;48.242;11.644;2022-07-17T08:45:29;27.20;74.50
16076;DHT22;8142;48.242;11.644;2022-07-17T08:47:55;27.20;72.90
16076;DHT22;8142;48.242;11.644;2022-07-17T08:50:31;27.20;72.50
16076;DHT22;8142;48.242;11.644;2022-07-17T08:52:57;27.10;73.30
16076;DHT22;8142;48.242;11.644;2022-07-17T08:55:23;27.00;74.30
16076;DHT22;8142;48.242;11.644;2022-07-17T08:57:49;26.80;74.90
16076;DHT22;8142;48.242;11.644;2022-07-17T09:00:17;26.70;73.80
16076;DHT22;8142;48.242;11.644;2022-07-17T09:03:05;26.50;73.40
16076;DHT22;8142;48.242;11.644;2022-07-17T09:05:34;26.20;73.70
16076;DHT22;8142;48.242;11.644;2022-07-17T09:08:00;26.00;74.20
16076;DHT22;8142;48.242;11.644;2022-07-17T09:13:23;25.70;75.40
16076;DHT22;8142;48.242;11.644;2022-07-17T09:15:51;25.50;75.70
16076;DHT22;8142;48.242;11.644;2022-07-17T09:18:18;25.40;75.80
16076;DHT22;8142;48.242;11.644;2022-07-17T09:23:12;25.20;75.50
16076;DHT22;8142;48.242;11.644;2022-07-17T09:25:43;25.10;75.70
16076;DHT22;8142;48.242;11.644;2022-07-17T09:28:12;25.00;76.20
16076;DHT22;8142;48.242;11.644;2022-07-17T09:30:45;24.90;75.70
16076;DHT22;8142;48.242;11.644;2022-07-17T09:33:17;24.70;75.90
16076;DHT22;8142;48.242;11.644;2022-07-17T09:35:53;24.60;75.90
16076;DHT22;8142;48.242;11.644;2022-07-17T09:38:31;24.50;76.30
16076;DHT22;8142;48.242;11.644;2022-07-17T09:41:04;24.40;76.90
16076;DHT22;8142;48.242;11.644;2022-07-17T09:43:41;24.30;76.90
16076;DHT22;8142;48.242;11.644;2022-07-17T09:46:23;24.20;78.00
16076;DHT22;8142;48.242;11.644;2022-07-17T09:48:55;24.10;78.00
16076;DHT22;8142;48.242;11.644;2022-07-17T09:54:21;24.00;77.70
16076;DHT22;8142;48.242;11.644;2022-07-17T09:56:50;24.00;78.10
16076;DHT22;8142;48.242;11.644;2022-07-17T09:59:16;23.90;78.60
16076;DHT22;8142;48.242;11.644;2022-07-17T10:01:45;23.90;79.00
16076;DHT22;8142;48.242;11.644;2022-07-17T10:04:17;23.90;78.20
16076;DHT22;8142;48.242;11.644;2022-07-17T10:06:43;23.80;77.70
16076;DHT22;8142;48.242;11.644;2022-07-17T10:09:09;23.80;76.80
16076;DHT22;8142;48.242;11.644;2022-07-17T10:11:40;23.80;76.70
16076;DHT22;8142;48.242;11.644;2022-07-17T10:14:11;23.70;75.60
16076;DHT22;8142;48.242;11.644;2022-07-17T10:16:38;23.70;73.70
16076;DHT22;8142;48.242;11.644;2022-07-17T10:21:57;23.70;70.90
16076;DHT22;8142;48.242;11.644;2022-07-17T10:24:23;23.60;73.80
16076;DHT22;8142;48.242;11.644;2022-07-17T10:26:49;23.70;77.80
16076;DHT22;8142;48.242;11.644;2022-07-17T10:29:38;23.70;76.80
16076;DHT22;8142;48.242;11.644;2022-07-17T10:32:09;23.70;78.00
16076;DHT22;8142;48.242;11.644;2022-07-17T10:34:42;23.70;74.50
16076;DHT22;8142;48.242;11.644;2022-07-17T10:37:26;23.70;74.60
16076;DHT22;8142;48.242;11.644;2022-07-17T10:48:04;23.70;73.70
16076;DHT22;8142;48.242;11.644;2022-07-17T10:55:34;23.80;75.50
16076;DHT22;8142;48.242;11.644;2022-07-17T10:58:12;23.80;77.70
16076;DHT22;8142;48.242;11.644;2022-07-17T11:00:39;23.90;76.60
16076;DHT22;8142;48.242;11.644;2022-07-17T11:03:12;23.90;76.10
16076;DHT22;8142;48.242;11.644;2022-07-17T11:05:39;23.90;74.90
16076;DHT22;8142;48.242;11.644;2022-07-17T11:08:05;23.90;75.90
16076;DHT22;8142;48.242;11.644;2022-07-17T11:10:36;23.90;76.00
16076;DHT22;8142;48.242;11.644;2022-07-17T11:13:10;23.90;77.50
16076;DHT22;8142;48.242;11.644;2022-07-17T11:18:11;23.90;76.40
16076;DHT22;8142;48.242;11.644;2022-07-17T11:20:57;23.90;75.50
16076;DHT22;8142;48.242;11.644;2022-07-17T11:23:25;24.00;75.70
16076;DHT22;8142;48.242;11.644;2022-07-17T11:28:30;23.90;74.90
16076;DHT22;8142;48.242;11.644;2022-07-17T11:30:56;23.90;73.80
16076;DHT22;8142;48.242;11.644;2022-07-17T11:33:22;23.80;74.80
16076;DHT22;8142;48.242;11.644;2022-07-17T11:35:51;23.90;75.00
16076;DHT22;8142;48.242;11.644;2022-07-17T11:38:27;23.80;74.60
16076;DHT22;8142;48.242;11.644;2022-07-17T11:40:56;23.80;74.70
16076;DHT22;8142;48.242;11.644;2022-07-17T11:43:23;23.80;75.00
16076;DHT22;8142;48.242;11.644;2022-07-17T11:45:49;23.90;74.40
16076;DHT22;8142;48.242;11.644;2022-07-17T11:48:16;23.80;72.30
16076;DHT22;8142;48.242;11.644;2022-07-17T11:50:54;23.80;72.10
16076;DHT22;8142;48.242;11.644;2022-07-17T11:53:31;23.80;72.40
16076;DHT22;8142;48.242;11.644;2022-07-17T11:55:57;23.80;72.30
16076;DHT22;8142;48.242;11.644;2022-07-17T11:58:23;23.70;71.90
16076;DHT22;8142;48.242;11.644;2022-07-17T12:01:00;23.70;71.00
16076;DHT22;8142;48.242;11.644;2022-07-17T12:03:26;23.70;69.40
16076;DHT22;8142;48.242;11.644;2022-07-17T12:05:52;23.60;70.70
16076;DHT22;8142;48.242;11.644;2022-07-17T12:08:19;23.70;69.70
16076;DHT22;8142;48.242;11.644;2022-07-17T12:10:58;23.70;70.10
16076;DHT22;8142;48.242;11.644;2022-07-17T12:13:44;23.60;70.10
16076;DHT22;8142;48.242;11.644;2022-07-17T12:16:29;23.70;70.30
16076;DHT22;8142;48.242;11.644;2022-07-17T12:19:00;23.80;73.10
16076;DHT22;8142;48.242;11.644;2022-07-17T12:21:33;23.80;73.00
16076;DHT22;8142;48.242;11.644;2022-07-17T12:24:05;23.80;72.70
16076;DHT22;8142;48.242;11.644;2022-07-17T12:26:32;23.80;71.60
16076;DHT22;8142;48.242;11.644;2022-07-17T12:28:59;23.80;71.20
16076;DHT22;8142;48.242;11.644;2022-07-17T12:31:26;24.00;74.10
16076;DHT22;8142;48.242;11.644;2022-07-17T12:33:53;23.80;74.10
16076;DHT22;8142;48.242;11.644;2022-07-17T12:36:23;23.90;72.70
16076;DHT22;8142;48.242;11.644;2022-07-17T12:38:49;23.90;72.80
16076;DHT22;8142;48.242;11.644;2022-07-17T12:41:15;23.90;72.90
16076;DHT22;8142;48.242;11.644;2022-07-17T12:43:41;24.00;73.10
16076;DHT22;8142;48.242;11.644;2022-07-17T12:46:07;24.10;72.20
16076;DHT22;8142;48.242;11.644;2022-07-17T12:48:33;24.10;71.50
16076;DHT22;8142;48.242;11.644;2022-07-17T12:51:00;24.00;72.30
16076;DHT22;8142;48.242;11.644;2022-07-17T12:53:26;24.10;72.60
16076;DHT22;8142;48.242;11.644;2022-07-17T12:55:52;24.10;76.80
16076;DHT22;8142;48.242;11.644;2022-07-17T12:58:18;24.10;75.50
16076;DHT22;8142;48.242;11.644;2022-07-17T13:00:44;24.20;73.00
16076;DHT22;8142;48.242;11.644;2022-07-17T13:03:11;24.10;71.70
16076;DHT22;8142;48.242;11.644;2022-07-17T13:05:37;24.10;71.30
16076;DHT22;8142;48.242;11.644;2022-07-17T13:08:03;24.10;72.40
16076;DHT22;8142;48.242;11.644;2022-07-17T13:10:29;24.10;73.30
16076;DHT22;8142;48.242;11.644;2022-07-17T13:12:55;24.10;67.50
16076;DHT22;8142;48.242;11.644;2022-07-17T13:15:21;24.10;66.20
16076;DHT22;8142;48.242;11.644;2022-07-17T13:17:47;24.10;65.00
16076;DHT22;8142;48.242;11.644;2022-07-17T13:20:12;24.10;63.20
16076;DHT22;8142;48.242;11.644;2022-07-17T13:22:39;24.10;63.50
16076;DHT22;8142;48.242;11.644;2022-07-17T13:25:05;24.20;65.60
16076;DHT22;8142;48.242;11.644;2022-07-17T13:27:31;24.10;65.30
16076;DHT22;8142;48.242;11.644;2022-07-17T13:29:56;24.20;65.80
16076;DHT22;8142;48.242;11.644;2022-07-17T13:32:22;24.20;64.50
16076;DHT22;8142;48.242;11.644;2022-07-17T13:34:48;24.20;65.00
16076;DHT22;8142;48.242;11.644;2022-07-17T13:37:14;24.20;64.60
16076;DHT22;8142;48.242;11.644;2022-07-17T13:39:40;24.30;64.60
16076;DHT22;8142;48.242;11.644;2022-07-17T13:42:06;24.30;64.50
16076;DHT22;8142;48.242;11.644;2022-07-17T13:44:32;24.40;64.80
16076;DHT22;8142;48.242;11.644;2022-07-17T13:46:57;24.40;64.10
16076;DHT22;8142;48.242;11.644;2022-07-17T13:49:24;24.40;62.80
16076;DHT22;8142;48.242;11.644;2022-07-17T13:51:50;24.40;63.90
16076;DHT22;8142;48.242;11.644;2022-07-17T13:54:16;24.40;64.90
16076;DHT22;8142;48.242;11.644;2022-07-17T13:56:42;24.40;64.30
16076;DHT22;8142;48.242;11.644;2022-07-17T13:59:08;24.40;66.50
16076;DHT22;8142;48.242;11.644;2022-07-17T14:01:34;24.50;70.20
16076;DHT22;8142;48.242;11.644;2022-07-17T14:04:03;24.40;70.00
16076;DHT22;8142;48.242;11.644;2022-07-17T14:06:29;24.50;70.50
16076;DHT22;8142;48.242;11.644;2022-07-17T14:08:55;24.50;69.50
16076;DHT22;8142;48.242;11.644;2022-07-17T14:11:21;24.50;68.60
16076;DHT22;8142;48.242;11.644;2022-07-17T14:13:47;24.50;68.40
16076;DHT22;8142;48.242;11.644;2022-07-17T14:16:13;24.50;69.50
16076;DHT22;8142;48.242;11.644;2022-07-17T14:18:39;24.50;69.80
16076;DHT22;8142;48.242;11.644;2022-07-17T14:21:28;24.60;70.90
16076;DHT22;8142;48.242;11.644;2022-07-17T14:23:54;24.50;70.80
16076;DHT22;8142;48.242;11.644;2022-07-17T14:26:20;24.50;70.90
16076;DHT22;8142;48.242;11.644;2022-07-17T14:28:46;24.50;70.80
16076;DHT22;8142;48.242;11.644;2022-07-17T14:31:12;24.50;70.50
16076;DHT22;8142;48.242;11.644;2022-07-17T14:33:38;24.50;70.30
16076;DHT22;8142;48.242;11.644;2022-07-17T14:36:04;24.50;69.80
16076;DHT22;8142;48.242;11.644;2022-07-17T14:38:30;24.50;70.40
16076;DHT22;8142;48.242;11.644;2022-07-17T14:40:58;24.60;70.20
16076;DHT22;8142;48.242;11.644;2022-07-17T14:43:23;24.50;70.90
16076;DHT22;8142;48.242;11.644;2022-07-17T14:45:50;24.60;71.10
16076;DHT22;8142;48.242;11.644;2022-07-17T14:48:16;24.50;71.00
16076;DHT22;8142;48.242;11.644;2022-07-17T14:50:41;24.50;70.30
16076;DHT22;8142;48.242;11.644;2022-07-17T14:53:07;24.60;68.40
16076;DHT22;8142;48.242;11.644;2022-07-17T14:55:33;24.60;67.70
16076;DHT22;8142;48.242;11.644;2022-07-17T14:57:59;24.60;67.90
16076;DHT22;8142;48.242;11.644;2022-07-17T15:00:25;24.60;68.60
16076;DHT22;8142;48.242;11.644;2022-07-17T15:02:52;24.60;68.50
16076;DHT22;8142;48.242;11.644;2022-07-17T15:05:17;24.60;69.50
16076;DHT22;8142;48.242;11.644;2022-07-17T15:07:43;24.60;68.30
16076;DHT22;8142;48.242;11.644;2022-07-17T15:10:09;24.60;68.00
16076;DHT22;8142;48.242;11.644;2022-07-17T15:12:36;24.60;68.60
16076;DHT22;8142;48.242;11.644;2022-07-17T15:15:36;24.60;68.60
16076;DHT22;8142;48.242;11.644;2022-07-17T15:18:02;24.50;68.90
16076;DHT22;8142;48.242;11.644;2022-07-17T15:20:30;24.40;69.30
16076;DHT22;8142;48.242;11.644;2022-07-17T15:22:56;24.20;70.10
16076;DHT22;8142;48.242;11.644;2022-07-17T15:25:22;24.10;70.70
16076;DHT22;8142;48.242;11.644;2022-07-17T15:27:48;24.10;70.90
16076;DHT22;8142;48.242;11.644;2022-07-17T15:30:13;24.10;71.10
16076;DHT22;8142;48.242;11.644;2022-07-17T15:32:39;24.10;70.70
16076;DHT22;8142;48.242;11.644;2022-07-17T15:35:06;24.10;71.00
16076;DHT22;8142;48.242;11.644;2022-07-17T15:37:32;24.10;70.70
16076;DHT22;8142;48.242;11.644;2022-07-17T15:39:58;24.20;69.50
16076;DHT22;8142;48.242;11.644;2022-07-17T15:42:28;24.20;69.50
16076;DHT22;8142;48.242;11.644;2022-07-17T15:44:54;24.20;69.40
16076;DHT22;8142;48.242;11.644;2022-07-17T15:47:20;24.20;69.50
16076;DHT22;8142;48.242;11.644;2022-07-17T15:49:46;24.30;69.60
16076;DHT22;8142;48.242;11.644;2022-07-17T15:52:12;24.30;69.30
16076;DHT22;8142;48.242;11.644;2022-07-17T15:54:38;24.30;68.30
16076;DHT22;8142;48.242;11.644;2022-07-17T15:57:04;24.40;68.50
16076;DHT22;8142;48.242;11.644;2022-07-17T15:59:30;24.40;68.00